sensor_id;sensor_type;location;lat;lon;timestamp;pressure;altitude;pressure_sealevel;temperature;humidity
70217;BME280;57608;0.000;0.000;2022-07-10T00:00:36;98750.88;;;24.63;49.02
70217;BME280;57608;0.000;0.000;2022-07-10T00:03:03;98739.84;;;24.58;49.02
70217;BME280;57608;0.000;0.000;2022-07-10T00:05:36;98739.72;;;24.51;48.91
70217;BME280;57608;0.000;0.000;2022-07-10T00:08:02;98740.78;;;24.42;48.87
70217;BME280;57608;0.000;0.000;2022-07-10T00:10:42;98727.22;;;24.44;48.88
70217;BME280;57608;0.000;0.000;2022-07-10T00:13:12;98723.53;;;24.45;48.92
70217;BME280;57608;0.000;0.000;2022-07-10T00:15:38;98728.53;;;24.48;48.81
70217;BME280;57608;0.000;0.000;2022-07-10T00:18:03;98734.47;;;24.58;48.41
70217;BME280;57608;0.000;0.000;2022-07-10T00:20:29;98722.41;;;24.62;48.27
70217;BME280;57608;0.000;0.000;2022-07-10T00:22:55;98720.66;;;24.69;47.90
70217;BME280;57608;0.000;0.000;2022-07-10T00:25:21;98709.41;;;24.74;48.17
70217;BME280;57608;0.000;0.000;2022-07-10T00:27:47;98708.03;;;24.78;48.37
70217;BME280;57608;0.000;0.000;2022-07-10T00:30:18;98718.75;;;24.78;48.33
70217;BME280;57608;0.000;0.000;2022-07-10T00:32:44;98711.53;;;24.79;48.39
70217;BME280;57608;0.000;0.000;2022-07-10T00:35:09;98713.69;;;24.83;48.59
70217;BME280;57608;0.000;0.000;2022-07-10T00:37:35;98710.63;;;24.86;48.54
70217;BME280;57608;0.000;0.000;2022-07-10T00:40:03;98707.31;;;24.84;48.49
70217;BME280;57608;0.000;0.000;2022-07-10T00:42:30;98707.31;;;24.84;48.63
70217;BME280;57608;0.000;0.000;2022-07-10T00:44:55;98695.41;;;24.87;48.67
70217;BME280;57608;0.000;0.000;2022-07-10T00:47:21;98691.03;;;24.86;48.61
70217;BME280;57608;0.000;0.000;2022-07-10T00:49:47;98697.31;;;24.78;48.76
70217;BME280;57608;0.000;0.000;2022-07-10T00:52:15;98706.84;;;24.81;49.03
70217;BME280;57608;0.000;0.000;2022-07-10T00:54:48;98707.13;;;24.86;48.44
70217;BME280;57608;0.000;0.000;2022-07-10T00:57:16;98718.84;;;24.85;48.43
70217;BME280;57608;0.000;0.000;2022-07-10T00:59:44;98713.41;;;24.78;48.86
70217;BME280;57608;0.000;0.000;2022-07-10T01:02:10;98703.22;;;24.73;49.03
70217;BME280;57608;0.000;0.000;2022-07-10T01:04:37;98703.41;;;24.72;48.82
70217;BME280;57608;0.000;0.000;2022-07-10T01:07:03;98692.59;;;24.65;48.58
70217;BME280;57608;0.000;0.000;2022-07-10T01:09:32;98698.28;;;24.62;48.79
70217;BME280;57608;0.000;0.000;2022-07-10T01:12:10;98697.63;;;24.60;48.48
70217;BME280;57608;0.000;0.000;2022-07-10T01:14:37;98688.78;;;24.60;48.72
70217;BME280;57608;0.000;0.000;2022-07-10T01:17:05;98678.56;;;24.63;48.59
70217;BME280;57608;0.000;0.000;2022-07-10T01:19:31;98680.22;;;24.64;48.84
70217;BME280;57608;0.000;0.000;2022-07-10T01:21:57;98694.06;;;24.68;49.02
70217;BME280;57608;0.000;0.000;2022-07-10T01:24:23;98693.88;;;24.69;48.41
70217;BME280;57608;0.000;0.000;2022-07-10T01:26:49;98690.38;;;24.69;48.39
70217;BME280;57608;0.000;0.000;2022-07-10T01:29:15;98687.72;;;24.69;48.05
70217;BME280;57608;0.000;0.000;2022-07-10T01:31:40;98672.31;;;24.63;48.36
70217;BME280;57608;0.000;0.000;2022-07-10T01:34:08;98672.69;;;24.60;48.63
70217;BME280;57608;0.000;0.000;2022-07-10T01:36:35;98661.13;;;24.59;48.44
70217;BME280;57608;0.000;0.000;2022-07-10T01:39:02;98667.84;;;24.63;48.33
70217;BME280;57608;0.000;0.000;2022-07-10T01:41:28;98659.06;;;24.69;48.16
70217;BME280;57608;0.000;0.000;2022-07-10T01:43:54;98656.03;;;24.72;48.14
70217;BME280;57608;0.000;0.000;2022-07-10T01:46:27;98662.69;;;24.77;48.14
70217;BME280;57608;0.000;0.000;2022-07-10T01:48:52;98661.50;;;24.79;48.00
70217;BME280;57608;0.000;0.000;2022-07-10T01:51:19;98661.97;;;24.83;48.04
70217;BME280;57608;0.000;0.000;2022-07-10T01:53:45;98655.22;;;24.87;48.15
70217;BME280;57608;0.000;0.000;2022-07-10T01:56:17;98649.66;;;24.88;47.97
70217;BME280;57608;0.000;0.000;2022-07-10T01:58:43;98657.03;;;24.86;47.93
70217;BME280;57608;0.000;0.000;2022-07-10T02:01:09;98660.75;;;24.85;47.90
70217;BME280;57608;0.000;0.000;2022-07-10T02:03:35;98661.19;;;24.89;47.38
70217;BME280;57608;0.000;0.000;2022-07-10T02:06:19;98667.88;;;24.93;47.23
70217;BME280;57608;0.000;0.000;2022-07-10T02:08:45;98666.22;;;24.92;47.06
70217;BME280;57608;0.000;0.000;2022-07-10T02:11:10;98666.41;;;24.90;47.38
70217;BME280;57608;0.000;0.000;2022-07-10T02:13:37;98654.19;;;24.88;47.45
70217;BME280;57608;0.000;0.000;2022-07-10T02:16:03;98664.06;;;24.87;47.21
70217;BME280;57608;0.000;0.000;2022-07-10T02:18:29;98664.53;;;24.91;46.98
70217;BME280;57608;0.000;0.000;2022-07-10T02:20:54;98667.94;;;24.85;46.58
70217;BME280;57608;0.000;0.000;2022-07-10T02:23:20;98674.69;;;24.81;46.99
70217;BME280;57608;0.000;0.000;2022-07-10T02:25:45;98682.72;;;24.81;46.90
70217;BME280;57608;0.000;0.000;2022-07-10T02:28:10;98683.63;;;24.73;46.58
70217;BME280;57608;0.000;0.000;2022-07-10T02:30:36;98673.84;;;24.65;46.95
70217;BME280;57608;0.000;0.000;2022-07-10T02:33:02;98682.06;;;24.64;47.16
70217;BME280;57608;0.000;0.000;2022-07-10T02:35:28;98685.44;;;24.57;47.38
70217;BME280;57608;0.000;0.000;2022-07-10T02:37:53;98683.31;;;24.53;47.45
70217;BME280;57608;0.000;0.000;2022-07-10T02:40:19;98686.53;;;24.48;47.79
70217;BME280;57608;0.000;0.000;2022-07-10T02:42:44;98691.88;;;24.48;47.70
70217;BME280;57608;0.000;0.000;2022-07-10T02:45:09;98686.34;;;24.50;47.75
70217;BME280;57608;0.000;0.000;2022-07-10T02:47:35;98682.47;;;24.52;47.68
70217;BME280;57608;0.000;0.000;2022-07-10T02:50:01;98683.31;;;24.53;48.00
70217;BME280;57608;0.000;0.000;2022-07-10T02:52:26;98684.81;;;24.55;47.96
70217;BME280;57608;0.000;0.000;2022-07-10T02:54:52;98675.56;;;24.58;47.87
70217;BME280;57608;0.000;0.000;2022-07-10T02:57:18;98686.91;;;24.60;48.18
70217;BME280;57608;0.000;0.000;2022-07-10T02:59:43;98680.94;;;24.58;48.08
70217;BME280;57608;0.000;0.000;2022-07-10T03:02:09;98678.97;;;24.52;48.27
70217;BME280;57608;0.000;0.000;2022-07-10T03:04:34;98674.63;;;24.51;48.21
70217;BME280;57608;0.000;0.000;2022-07-10T03:07:00;98686.00;;;24.53;48.72
70217;BME280;57608;0.000;0.000;2022-07-10T03:09:26;98681.28;;;24.55;48.41
70217;BME280;57608;0.000;0.000;2022-07-10T03:11:52;98693.94;;;24.61;48.50
70217;BME280;57608;0.000;0.000;2022-07-10T03:14:17;98688.91;;;24.66;48.38
70217;BME280;57608;0.000;0.000;2022-07-10T03:16:43;98678.47;;;24.71;48.82
70217;BME280;57608;0.000;0.000;2022-07-10T03:19:08;98681.78;;;24.73;49.02
70217;BME280;57608;0.000;0.000;2022-07-10T03:21:34;98683.75;;;24.80;48.85
70217;BME280;57608;0.000;0.000;2022-07-10T03:24:00;98685.03;;;24.84;48.94
70217;BME280;57608;0.000;0.000;2022-07-10T03:26:25;98679.50;;;24.85;48.77
70217;BME280;57608;0.000;0.000;2022-07-10T03:28:51;98691.78;;;24.80;48.80
70217;BME280;57608;0.000;0.000;2022-07-10T03:31:17;98695.47;;;24.79;48.60
70217;BME280;57608;0.000;0.000;2022-07-10T03:33:43;98688.63;;;24.76;48.77
70217;BME280;57608;0.000;0.000;2022-07-10T03:36:08;98694.16;;;24.74;49.01
70217;BME280;57608;0.000;0.000;2022-07-10T03:38:36;98693.88;;;24.69;48.68
70217;BME280;57608;0.000;0.000;2022-07-10T03:41:01;98700.91;;;24.70;48.82
70217;BME280;57608;0.000;0.000;2022-07-10T03:43:27;98693.16;;;24.76;48.86
70217;BME280;57608;0.000;0.000;2022-07-10T03:45:52;98693.88;;;24.69;48.88
70217;BME280;57608;0.000;0.000;2022-07-10T03:48:18;98689.19;;;24.71;49.00
70217;BME280;57608;0.000;0.000;2022-07-10T03:50:43;98678.47;;;24.71;48.63
70217;BME280;57608;0.000;0.000;2022-07-10T03:53:09;98670.06;;;24.74;48.78
70217;BME280;57608;0.000;0.000;2022-07-10T03:55:34;98671.44;;;24.70;49.21
70217;BME280;57608;0.000;0.000;2022-07-10T03:58:00;98664.13;;;24.64;49.18
70217;BME280;57608;0.000;0.000;2022-07-10T04:00:29;98656.44;;;24.61;49.31
70217;BME280;57608;0.000;0.000;2022-07-10T04:03:02;98645.06;;;24.59;49.41
70217;BME280;57608;0.000;0.000;2022-07-10T04:05:28;98639.91;;;24.57;49.76
70217;BME280;57608;0.000;0.000;2022-07-10T04:07:54;98634.94;;;24.54;49.69
70217;BME280;57608;0.000;0.000;2022-07-10T04:10:22;98629.75;;;24.53;49.73
70217;BME280;57608;0.000;0.000;2022-07-10T04:12:48;98627.09;;;24.53;49.45
70217;BME280;57608;0.000;0.000;2022-07-10T04:15:14;98622.16;;;24.56;49.40
70217;BME280;57608;0.000;0.000;2022-07-10T04:17:40;98613.78;;;24.60;49.00
70217;BME280;57608;0.000;0.000;2022-07-10T04:20:06;98622.84;;;24.58;48.96
70217;BME280;57608;0.000;0.000;2022-07-10T04:22:31;98627.81;;;24.62;49.09
70217;BME280;57608;0.000;0.000;2022-07-10T04:24:57;98630.59;;;24.68;48.88
70217;BME280;57608;0.000;0.000;2022-07-10T04:27:22;98640.97;;;24.71;48.89
70217;BME280;57608;0.000;0.000;2022-07-10T04:29:48;98633.56;;;24.73;48.83
70217;BME280;57608;0.000;0.000;2022-07-10T04:32:15;98633.41;;;24.75;47.91
70217;BME280;57608;0.000;0.000;2022-07-10T04:34:40;98621.03;;;24.74;48.47
70217;BME280;57608;0.000;0.000;2022-07-10T04:37:06;98618.81;;;24.78;48.31
70217;BME280;57608;0.000;0.000;2022-07-10T04:39:36;98622.13;;;24.80;48.14
70217;BME280;57608;0.000;0.000;2022-07-10T04:42:03;98624.63;;;24.81;48.37
70217;BME280;57608;0.000;0.000;2022-07-10T04:44:29;98617.03;;;24.85;48.46
70217;BME280;57608;0.000;0.000;2022-07-10T04:46:54;98615.03;;;24.87;48.64
70217;BME280;57608;0.000;0.000;2022-07-10T04:49:20;98617.41;;;24.97;48.35
70217;BME280;57608;0.000;0.000;2022-07-10T04:51:45;98614.44;;;25.06;48.06
70217;BME280;57608;0.000;0.000;2022-07-10T04:54:11;98618.16;;;25.05;48.40
70217;BME280;57608;0.000;0.000;2022-07-10T04:56:37;98631.34;;;25.07;47.90
70217;BME280;57608;0.000;0.000;2022-07-10T04:59:02;98626.84;;;25.07;48.04
70217;BME280;57608;0.000;0.000;2022-07-10T05:01:28;98626.44;;;25.11;48.09
70217;BME280;57608;0.000;0.000;2022-07-10T05:03:53;98611.94;;;25.20;47.93
70217;BME280;57608;0.000;0.000;2022-07-10T05:06:19;98609.72;;;25.23;47.83
70217;BME280;57608;0.000;0.000;2022-07-10T05:08:44;98601.84;;;25.22;47.77
70217;BME280;57608;0.000;0.000;2022-07-10T05:11:10;98610.53;;;25.24;48.27
70217;BME280;57608;0.000;0.000;2022-07-10T05:13:36;98604.63;;;25.29;48.13
70217;BME280;57608;0.000;0.000;2022-07-10T05:16:02;98603.69;;;25.36;48.77
70217;BME280;57608;0.000;0.000;2022-07-10T05:18:28;98598.41;;;25.43;48.06
70217;BME280;57608;0.000;0.000;2022-07-10T05:20:54;98598.00;;;25.46;48.14
70217;BME280;57608;0.000;0.000;2022-07-10T05:23:19;98604.59;;;25.44;48.06
70217;BME280;57608;0.000;0.000;2022-07-10T05:25:45;98602.56;;;25.46;48.99
70217;BME280;57608;0.000;0.000;2022-07-10T05:28:10;98604.69;;;25.50;48.23
70217;BME280;57608;0.000;0.000;2022-07-10T05:30:38;98607.53;;;25.49;48.77
70217;BME280;57608;0.000;0.000;2022-07-10T05:33:03;98608.19;;;25.51;48.06
70217;BME280;57608;0.000;0.000;2022-07-10T05:35:31;98614.09;;;25.46;48.51
70217;BME280;57608;0.000;0.000;2022-07-10T05:37:56;98608.38;;;25.49;48.54
70217;BME280;57608;0.000;0.000;2022-07-10T05:40:22;98605.78;;;25.56;48.82
70217;BME280;57608;0.000;0.000;2022-07-10T05:42:50;98600.47;;;25.63;48.79
70217;BME280;57608;0.000;0.000;2022-07-10T05:45:16;98604.88;;;25.70;48.02
70217;BME280;57608;0.000;0.000;2022-07-10T05:47:41;98607.06;;;25.82;48.28
70217;BME280;57608;0.000;0.000;2022-07-10T05:50:07;98611.25;;;25.91;48.09
70217;BME280;57608;0.000;0.000;2022-07-10T05:52:33;98617.91;;;25.95;48.24
70217;BME280;57608;0.000;0.000;2022-07-10T05:54:59;98604.69;;;25.94;48.38
70217;BME280;57608;0.000;0.000;2022-07-10T05:57:24;98610.31;;;25.99;48.33
70217;BME280;57608;0.000;0.000;2022-07-10T05:59:50;98601.25;;;26.00;47.76
70217;BME280;57608;0.000;0.000;2022-07-10T06:02:16;98599.66;;;26.05;48.54
70217;BME280;57608;0.000;0.000;2022-07-10T06:04:41;98600.91;;;26.10;47.99
70217;BME280;57608;0.000;0.000;2022-07-10T06:07:07;98601.63;;;26.18;47.86
70217;BME280;57608;0.000;0.000;2022-07-10T06:09:33;98611.59;;;26.25;47.29
70217;BME280;57608;0.000;0.000;2022-07-10T06:11:58;98603.69;;;26.23;47.54
70217;BME280;57608;0.000;0.000;2022-07-10T06:14:23;98618.66;;;26.32;47.79
70217;BME280;57608;0.000;0.000;2022-07-10T06:16:49;98611.91;;;26.43;47.84
70217;BME280;57608;0.000;0.000;2022-07-10T06:19:14;98616.28;;;26.44;47.65
70217;BME280;57608;0.000;0.000;2022-07-10T06:21:42;98608.00;;;26.46;47.86
70217;BME280;57608;0.000;0.000;2022-07-10T06:24:08;98618.34;;;26.49;47.51
70217;BME280;57608;0.000;0.000;2022-07-10T06:26:34;98613.44;;;26.52;48.09
70217;BME280;57608;0.000;0.000;2022-07-10T06:28:59;98612.66;;;26.59;47.89
70217;BME280;57608;0.000;0.000;2022-07-10T06:31:25;98602.72;;;26.59;47.65
70217;BME280;57608;0.000;0.000;2022-07-10T06:33:50;98599.81;;;26.61;47.63
70217;BME280;57608;0.000;0.000;2022-07-10T06:36:16;98598.81;;;26.62;47.79
70217;BME280;57608;0.000;0.000;2022-07-10T06:38:42;98602.72;;;26.59;47.92
70217;BME280;57608;0.000;0.000;2022-07-10T06:41:07;98612.59;;;26.52;48.31
70217;BME280;57608;0.000;0.000;2022-07-10T06:43:33;98618.56;;;26.47;47.96
70217;BME280;57608;0.000;0.000;2022-07-10T06:45:58;98617.50;;;26.42;47.69
70217;BME280;57608;0.000;0.000;2022-07-10T06:48:26;98610.47;;;26.41;47.67
70217;BME280;57608;0.000;0.000;2022-07-10T06:50:52;98618.09;;;26.44;47.43
70217;BME280;57608;0.000;0.000;2022-07-10T06:53:18;98617.03;;;26.38;47.59
70217;BME280;57608;0.000;0.000;2022-07-10T06:55:52;98620.31;;;26.33;47.88
70217;BME280;57608;0.000;0.000;2022-07-10T06:58:17;98621.09;;;26.27;48.13
70217;BME280;57608;0.000;0.000;2022-07-10T07:00:43;98621.88;;;26.21;48.07
70217;BME280;57608;0.000;0.000;2022-07-10T07:03:08;98621.63;;;26.16;48.21
70217;BME280;57608;0.000;0.000;2022-07-10T07:05:34;98623.88;;;26.12;48.20
70217;BME280;57608;0.000;0.000;2022-07-10T07:07:59;98624.88;;;26.11;48.38
70217;BME280;57608;0.000;0.000;2022-07-10T07:10:25;98625.56;;;26.20;49.00
70217;BME280;57608;0.000;0.000;2022-07-10T07:12:50;98631.09;;;26.12;49.07
70217;BME280;57608;0.000;0.000;2022-07-10T07:15:16;98623.53;;;26.22;48.87
70217;BME280;57608;0.000;0.000;2022-07-10T07:17:42;98628.56;;;26.32;48.37
70217;BME280;57608;0.000;0.000;2022-07-10T07:20:31;98632.75;;;26.41;48.63
70217;BME280;57608;0.000;0.000;2022-07-10T07:23:15;98621.81;;;26.43;48.33
70217;BME280;57608;0.000;0.000;2022-07-10T07:25:41;98620.09;;;26.07;49.29
70217;BME280;57608;0.000;0.000;2022-07-10T07:28:12;98623.78;;;26.27;49.05
70217;BME280;57608;0.000;0.000;2022-07-10T07:30:40;98622.38;;;26.31;49.14
70217;BME280;57608;0.000;0.000;2022-07-10T07:33:06;98627.69;;;26.25;48.86
70217;BME280;57608;0.000;0.000;2022-07-10T07:35:31;98631.03;;;26.33;48.46
70217;BME280;57608;0.000;0.000;2022-07-10T07:37:57;98624.81;;;26.26;47.57
70217;BME280;57608;0.000;0.000;2022-07-10T07:40:22;98633.56;;;26.35;47.55
70217;BME280;57608;0.000;0.000;2022-07-10T07:42:52;98631.16;;;26.47;47.49
70217;BME280;57608;0.000;0.000;2022-07-10T07:45:18;98627.53;;;26.61;46.69
70217;BME280;57608;0.000;0.000;2022-07-10T07:47:55;98630.47;;;26.66;47.03
70217;BME280;57608;0.000;0.000;2022-07-10T07:50:22;98634.03;;;26.74;47.76
70217;BME280;57608;0.000;0.000;2022-07-10T07:52:52;98632.53;;;26.71;47.19
70217;BME280;57608;0.000;0.000;2022-07-10T07:55:21;98627.56;;;26.68;47.54
70217;BME280;57608;0.000;0.000;2022-07-10T07:57:50;98625.91;;;26.67;46.98
70217;BME280;57608;0.000;0.000;2022-07-10T08:00:16;98632.53;;;26.71;47.00
70217;BME280;57608;0.000;0.000;2022-07-10T08:02:42;98618.06;;;26.65;47.11
70217;BME280;57608;0.000;0.000;2022-07-10T08:05:08;98618.88;;;26.66;46.80
70217;BME280;57608;0.000;0.000;2022-07-10T08:07:39;98616.19;;;26.66;46.42
70217;BME280;57608;0.000;0.000;2022-07-10T08:10:07;98612.66;;;26.59;46.95
70217;BME280;57608;0.000;0.000;2022-07-10T08:12:33;98607.28;;;26.59;46.56
70217;BME280;57608;0.000;0.000;2022-07-10T08:14:59;98606.25;;;26.60;47.42
70217;BME280;57608;0.000;0.000;2022-07-10T08:17:26;98620.53;;;26.67;47.06
70217;BME280;57608;0.000;0.000;2022-07-10T08:19:52;98618.06;;;26.65;47.69
70217;BME280;57608;0.000;0.000;2022-07-10T08:22:17;98614.41;;;26.73;47.20
70217;BME280;57608;0.000;0.000;2022-07-10T08:24:43;98617.44;;;26.70;47.13
70217;BME280;57608;0.000;0.000;2022-07-10T08:27:08;98613.13;;;26.69;46.75
70217;BME280;57608;0.000;0.000;2022-07-10T08:29:34;98617.09;;;26.73;46.19
70217;BME280;57608;0.000;0.000;2022-07-10T08:32:00;98612.28;;;26.68;46.65
70217;BME280;57608;0.000;0.000;2022-07-10T08:34:26;98611.41;;;26.61;46.90
70217;BME280;57608;0.000;0.000;2022-07-10T08:36:53;98609.50;;;26.55;47.07
70217;BME280;57608;0.000;0.000;2022-07-10T08:39:18;98607.59;;;26.49;46.99
70217;BME280;57608;0.000;0.000;2022-07-10T08:41:46;98604.69;;;26.44;47.42
70217;BME280;57608;0.000;0.000;2022-07-10T08:44:16;98610.25;;;26.42;47.13
70217;BME280;57608;0.000;0.000;2022-07-10T08:46:42;98612.91;;;26.35;47.14
70217;BME280;57608;0.000;0.000;2022-07-10T08:49:09;98610.66;;;26.39;47.16
70217;BME280;57608;0.000;0.000;2022-07-10T08:51:46;98615.78;;;26.34;47.08
70217;BME280;57608;0.000;0.000;2022-07-10T08:54:14;98614.56;;;26.36;46.18
70217;BME280;57608;0.000;0.000;2022-07-10T08:56:42;98609.19;;;26.36;44.19
70217;BME280;57608;0.000;0.000;2022-07-10T08:59:08;98613.09;;;26.34;44.90
70217;BME280;57608;0.000;0.000;2022-07-10T09:01:37;98602.97;;;26.36;44.78
70217;BME280;57608;0.000;0.000;2022-07-10T09:04:03;98601.94;;;26.37;44.50
70217;BME280;57608;0.000;0.000;2022-07-10T09:06:29;98596.81;;;26.42;44.78
70217;BME280;57608;0.000;0.000;2022-07-10T09:09:03;98596.00;;;26.42;44.10
70217;BME280;57608;0.000;0.000;2022-07-10T09:11:29;98598.25;;;26.38;44.66
70217;BME280;57608;0.000;0.000;2022-07-10T09:13:59;98593.44;;;26.33;45.21
70217;BME280;57608;0.000;0.000;2022-07-10T09:16:27;98593.41;;;26.27;45.32
70217;BME280;57608;0.000;0.000;2022-07-10T09:18:53;98592.97;;;26.23;45.65
70217;BME280;57608;0.000;0.000;2022-07-10T09:21:19;98585.56;;;26.25;45.95
70217;BME280;57608;0.000;0.000;2022-07-10T09:23:45;98581.69;;;26.34;45.38
70217;BME280;57608;0.000;0.000;2022-07-10T09:26:11;98590.16;;;26.31;45.53
70217;BME280;57608;0.000;0.000;2022-07-10T09:28:37;98585.63;;;26.38;44.96
70217;BME280;57608;0.000;0.000;2022-07-10T09:31:02;98591.44;;;26.42;44.80
70217;BME280;57608;0.000;0.000;2022-07-10T09:33:30;98598.69;;;26.42;45.39
70217;BME280;57608;0.000;0.000;2022-07-10T09:35:59;98585.50;;;26.47;44.79
70217;BME280;57608;0.000;0.000;2022-07-10T09:41:12;98584.44;;;26.48;44.75
70217;BME280;57608;0.000;0.000;2022-07-10T09:46:21;98578.34;;;26.61;43.76
70217;BME280;57608;0.000;0.000;2022-07-10T09:48:47;98582.72;;;26.68;43.12
70217;BME280;57608;0.000;0.000;2022-07-10T09:51:13;98573.25;;;26.73;43.08
70217;BME280;57608;0.000;0.000;2022-07-10T09:53:40;98563.09;;;26.68;43.01
70217;BME280;57608;0.000;0.000;2022-07-10T09:56:08;98558.53;;;26.68;42.40
70217;BME280;57608;0.000;0.000;2022-07-10T09:58:35;98556.44;;;26.57;43.05
70217;BME280;57608;0.000;0.000;2022-07-10T10:01:04;98558.88;;;26.52;43.72
70217;BME280;57608;0.000;0.000;2022-07-10T10:03:35;98552.31;;;26.61;43.74
70217;BME280;57608;0.000;0.000;2022-07-10T10:06:14;98558.00;;;26.73;43.09
70217;BME280;57608;0.000;0.000;2022-07-10T10:11:26;98544.00;;;26.49;44.15
70217;BME280;57608;0.000;0.000;2022-07-10T10:13:52;98541.47;;;26.48;44.55
70217;BME280;57608;0.000;0.000;2022-07-10T10:16:19;98548.06;;;26.45;44.47
70217;BME280;57608;0.000;0.000;2022-07-10T10:18:46;98546.63;;;26.43;44.50
70217;BME280;57608;0.000;0.000;2022-07-10T10:21:30;98547.03;;;26.39;44.49
70217;BME280;57608;0.000;0.000;2022-07-10T10:23:56;98544.09;;;26.34;44.70
70217;BME280;57608;0.000;0.000;2022-07-10T10:26:22;98552.56;;;26.31;44.97
70217;BME280;57608;0.000;0.000;2022-07-10T10:28:53;98544.53;;;26.38;42.85
70217;BME280;57608;0.000;0.000;2022-07-10T10:31:23;98543.03;;;26.29;43.21
70217;BME280;57608;0.000;0.000;2022-07-10T10:33:54;98538.69;;;26.28;42.59
70217;BME280;57608;0.000;0.000;2022-07-10T10:39:10;98542.66;;;26.38;41.74
70217;BME280;57608;0.000;0.000;2022-07-10T10:49:17;98539.50;;;26.28;43.00
70217;BME280;57608;0.000;0.000;2022-07-10T10:52:03;98538.84;;;26.19;43.45
70217;BME280;57608;0.000;0.000;2022-07-10T10:57:36;98539.50;;;26.28;43.35
70217;BME280;57608;0.000;0.000;2022-07-10T11:00:06;98547.19;;;26.31;43.52
70217;BME280;57608;0.000;0.000;2022-07-10T11:02:37;98544.31;;;26.33;43.23
70217;BME280;57608;0.000;0.000;2022-07-10T11:08:01;98545.19;;;26.40;42.59
70217;BME280;57608;0.000;0.000;2022-07-10T11:15:47;98541.56;;;26.61;41.23
70217;BME280;57608;0.000;0.000;2022-07-10T11:18:18;98544.88;;;26.63;41.53
70217;BME280;57608;0.000;0.000;2022-07-10T11:20:47;98550.88;;;26.65;41.75
70217;BME280;57608;0.000;0.000;2022-07-10T11:26:08;98543.53;;;26.74;41.25
70217;BME280;57608;0.000;0.000;2022-07-10T11:31:00;98547.69;;;26.77;40.79
70217;BME280;57608;0.000;0.000;2022-07-10T11:33:26;98548.69;;;26.76;41.26
70217;BME280;57608;0.000;0.000;2022-07-10T11:35:53;98548.50;;;26.77;41.03
70217;BME280;57608;0.000;0.000;2022-07-10T11:38:23;98545.00;;;26.83;41.23
70217;BME280;57608;0.000;0.000;2022-07-10T11:40:48;98548.94;;;26.87;41.12
70217;BME280;57608;0.000;0.000;2022-07-10T11:43:14;98544.59;;;26.86;41.22
70217;BME280;57608;0.000;0.000;2022-07-10T11:45:43;98551.44;;;26.89;40.84
70217;BME280;57608;0.000;0.000;2022-07-10T11:48:22;98550.63;;;26.88;40.47
70217;BME280;57608;0.000;0.000;2022-07-10T11:50:48;98542.75;;;26.87;41.06
70217;BME280;57608;0.000;0.000;2022-07-10T11:53:22;98538.00;;;26.89;40.70
70217;BME280;57608;0.000;0.000;2022-07-10T11:55:48;98539.22;;;26.86;40.88
70217;BME280;57608;0.000;0.000;2022-07-10T11:58:15;98535.50;;;26.81;41.08
70217;BME280;57608;0.000;0.000;2022-07-10T12:00:42;98538.34;;;26.73;41.39
70217;BME280;57608;0.000;0.000;2022-07-10T12:03:20;98535.78;;;26.64;41.88
70217;BME280;57608;0.000;0.000;2022-07-10T12:05:47;98530.59;;;26.56;42.36
70217;BME280;57608;0.000;0.000;2022-07-10T12:08:14;98526.72;;;26.65;41.52
70217;BME280;57608;0.000;0.000;2022-07-10T12:10:39;98518.41;;;26.60;41.75
70217;BME280;57608;0.000;0.000;2022-07-10T12:13:14;98529.09;;;26.47;42.31
70217;BME280;57608;0.000;0.000;2022-07-10T12:15:45;98517.94;;;26.50;42.48
70217;BME280;57608;0.000;0.000;2022-07-10T12:20:43;98520.06;;;26.54;42.43
70217;BME280;57608;0.000;0.000;2022-07-10T12:23:11;98516.03;;;26.72;42.43
70217;BME280;57608;0.000;0.000;2022-07-10T12:25:44;98517.28;;;26.83;41.78
70217;BME280;57608;0.000;0.000;2022-07-10T12:28:10;98502.22;;;26.82;42.29
70217;BME280;57608;0.000;0.000;2022-07-10T12:30:42;98504.19;;;26.66;42.73
70217;BME280;57608;0.000;0.000;2022-07-10T12:33:16;98501.84;;;26.50;43.55
70217;BME280;57608;0.000;0.000;2022-07-10T12:38:28;98500.72;;;26.73;42.90
70217;BME280;57608;0.000;0.000;2022-07-10T12:41:13;98486.72;;;26.84;42.44
70217;BME280;57608;0.000;0.000;2022-07-10T12:43:39;98489.63;;;26.89;41.40
70217;BME280;57608;0.000;0.000;2022-07-10T12:46:17;98489.59;;;26.82;41.85
70217;BME280;57608;0.000;0.000;2022-07-10T12:49:08;98485.66;;;26.78;41.83
70217;BME280;57608;0.000;0.000;2022-07-10T12:51:47;98493.97;;;26.90;40.99
70217;BME280;57608;0.000;0.000;2022-07-10T12:54:35;98488.41;;;26.98;40.60
70217;BME280;57608;0.000;0.000;2022-07-10T12:57:00;98486.78;;;27.04;40.60
70217;BME280;57608;0.000;0.000;2022-07-10T12:59:27;98484.91;;;27.11;40.63
70217;BME280;57608;0.000;0.000;2022-07-10T13:01:53;98485.13;;;27.10;40.71
70217;BME280;57608;0.000;0.000;2022-07-10T13:04:25;98476.03;;;27.11;41.18
70217;BME280;57608;0.000;0.000;2022-07-10T13:06:53;98482.66;;;27.01;41.64
70217;BME280;57608;0.000;0.000;2022-07-10T13:09:23;98493.63;;;27.13;41.11
70217;BME280;57608;0.000;0.000;2022-07-10T13:11:53;98480.19;;;27.13;41.09
70217;BME280;57608;0.000;0.000;2022-07-10T13:14:20;98468.78;;;27.11;41.11
70217;BME280;57608;0.000;0.000;2022-07-10T13:16:46;98463.63;;;27.16;40.84
70217;BME280;57608;0.000;0.000;2022-07-10T13:19:12;98459.50;;;27.14;40.94
70217;BME280;57608;0.000;0.000;2022-07-10T13:21:37;98460.34;;;27.21;40.67
70217;BME280;57608;0.000;0.000;2022-07-10T13:24:04;98461.16;;;27.15;40.72
70217;BME280;57608;0.000;0.000;2022-07-10T13:26:30;98467.16;;;27.17;40.49
70217;BME280;57608;0.000;0.000;2022-07-10T13:28:56;98476.25;;;27.16;40.76
70217;BME280;57608;0.000;0.000;2022-07-10T13:31:22;98467.78;;;27.19;40.43
70217;BME280;57608;0.000;0.000;2022-07-10T13:33:48;98473.16;;;27.19;40.39
70217;BME280;57608;0.000;0.000;2022-07-10T13:36:13;98468.56;;;26.99;41.20
70217;BME280;57608;0.000;0.000;2022-07-10T13:38:39;98462.97;;;26.94;41.18
70217;BME280;57608;0.000;0.000;2022-07-10T13:41:05;98452.41;;;26.79;41.72
70217;BME280;57608;0.000;0.000;2022-07-10T13:43:30;98450.88;;;26.70;41.93
70217;BME280;57608;0.000;0.000;2022-07-10T13:45:57;98444.44;;;26.58;42.44
70217;BME280;57608;0.000;0.000;2022-07-10T13:48:22;98441.53;;;26.52;42.42
70217;BME280;57608;0.000;0.000;2022-07-10T13:50:48;98441.50;;;26.46;42.52